Time;durP1;ratioP1;P1;durP2;ratioP2;P2;SDS_P1;SDS_P2;PMS_P1;PMS_P2;Temp;Humidity;BMP_temperature;BMP_pressure;BME280_temperature;BME280_humidity;BME280_pressure;Samples;Min_cycle;Max_cycle;Signal;HPM_P1;HPM_P2
2022/12/03 00:02:51;;;;;;;14.27;10.80;;;;;;;3.27;77.18;101126.13;5113618;28;20308;-73
2022/12/03 00:05:57;;;;;;;13.10;9.88;;;;;;;3.25;77.62;101127.84;5113660;28;20113;-73
2022/12/03 00:09:00;;;;;;;12.85;10.00;;;;;;;3.29;77.58;101126.97;5113924;28;20066;-74
2022/12/03 00:12:03;;;;;;;;;;;;;;;3.17;78.32;101124.53;5114267;28;20400;-74
2022/12/03 00:15:08;;;;;;;14.57;11.50;;;;;;;3.23;77.98;101124.44;5113553;28;19923;-73
2022/12/03 00:18:11;;;;;;;15.27;10.45;;;;;;;3.26;77.80;101122.69;5113158;28;20054;-74
2022/12/03 00:21:15;;;;;;;14.88;10.82;;;;;;;3.20;77.91;101122.75;5113081;28;20151;-73
2022/12/03 00:24:18;;;;;;;16.45;10.57;;;;;;;3.11;77.95;101122.88;5113312;28;20484;-74
2022/12/03 00:27:21;;;;;;;16.10;11.55;;;;;;;3.30;76.92;101120.91;5113005;28;20043;-73
2022/12/03 00:30:24;;;;;;;;;;;;;;;3.20;78.14;101124.50;5113527;28;20110;-73
2022/12/03 00:33:27;;;;;;;16.02;11.57;;;;;;;3.24;77.54;101120.97;5113150;28;19962;-74
2022/12/03 00:36:31;;;;;;;15.27;12.82;;;;;;;3.23;77.40;101122.72;5113094;28;20042;-74
2022/12/03 00:39:34;;;;;;;;;;;;;;;3.32;77.21;101121.75;5113411;28;20104;-74
2022/12/03 00:42:37;;;;;;;15.70;11.40;;;;;;;3.26;77.28;101120.09;5112103;28;19957;-74
2022/12/03 00:45:43;;;;;;;18.55;13.20;;;;;;;3.44;77.49;101115.56;5112869;28;20038;-73
2022/12/03 00:48:46;;;;;;;17.20;13.45;;;;;;;3.42;77.82;101118.16;5112754;28;20512;-75
2022/12/03 00:51:50;;;;;;;17.65;12.90;;;;;;;3.25;78.82;101112.34;5113107;28;20038;-75
2022/12/03 00:54:53;;;;;;;;;;;;;;;3.31;78.06;101111.41;5113154;28;20066;-74
2022/12/03 00:57:56;;;;;;;19.00;14.05;;;;;;;3.33;78.07;101110.53;5112630;28;19960;-75
2022/12/03 01:00:59;;;;;;;20.17;14.40;;;;;;;3.34;77.84;101112.22;5112836;28;20136;-74
2022/12/03 01:04:03;;;;;;;;;;;;;;;3.10;77.34;101109.97;5112980;28;20095;-74
2022/12/03 01:07:09;;;;;;;19.42;14.60;;;;;;;2.98;79.19;101109.22;5112597;28;19972;-74
2022/12/03 01:10:13;;;;;;;19.83;14.77;;;;;;;3.06;79.57;101111.72;5112495;28;20132;-74
2022/12/03 01:13:17;;;;;;;20.92;13.98;;;;;;;3.20;78.28;101109.84;5112484;28;20092;-73
2022/12/03 01:16:21;;;;;;;18.05;13.73;;;;;;;3.14;77.53;101109.91;5112343;28;20043;-73
2022/12/03 01:19:25;;;;;;;20.45;14.82;;;;;;;3.22;77.79;101113.28;5111420;28;20042;-73
2022/12/03 01:22:29;;;;;;;20.48;14.40;;;;;;;3.38;78.19;101121.69;5112385;28;20046;-73
2022/12/03 01:25:32;;;;;;;20.83;15.18;;;;;;;3.33;77.84;101114.84;5112352;28;20042;-74
2022/12/03 01:28:35;;;;;;;20.15;15.27;;;;;;;3.44;77.66;101113.81;5112183;28;20043;-73
2022/12/03 01:35:01;;;;;;;24.25;16.42;;;;;;;3.28;77.54;101112.31;5116276;28;19934;-74
2022/12/03 01:38:04;;;;;;;22.85;16.35;;;;;;;3.31;77.47;101117.44;5116522;28;20420;-74
2022/12/03 01:41:07;;;;;;;21.88;16.52;;;;;;;3.35;76.74;101115.66;5116397;28;20503;-74
2022/12/03 01:44:16;;;;;;;;;;;;;;;3.53;75.50;101112.00;5116939;28;20099;-74
2022/12/03 01:47:26;;;;;;;24.65;16.60;;;;;;;3.47;76.18;101118.94;5115943;28;19964;-74
2022/12/03 01:50:31;;;;;;;21.98;16.05;;;;;;;3.33;76.38;101120.88;5116232;28;20051;-73
2022/12/03 01:53:35;;;;;;;24.15;17.70;;;;;;;3.44;75.44;101108.66;5116428;28;20198;-73
2022/12/03 01:56:38;;;;;;;;;;;;;;;3.47;75.46;101124.13;5116877;28;20046;-74
2022/12/03 01:59:41;;;;;;;22.55;16.58;;;;;;;3.60;75.85;101124.81;5115973;28;19976;-74
2022/12/03 02:02:47;;;;;;;22.02;15.80;;;;;;;3.41;76.66;101128.50;5116290;28;20099;-74
2022/12/03 02:05:51;;;;;;;23.92;15.77;;;;;;;3.38;77.01;101123.38;5115990;28;20462;-73
2022/12/03 02:08:58;;;;;;;21.05;14.80;;;;;;;3.32;76.51;101123.47;5115839;28;20127;-74
2022/12/03 02:12:02;;;;;;;18.20;14.00;;;;;;;3.23;76.06;101112.38;5115799;28;20096;-75
2022/12/03 02:15:07;;;;;;;21.42;14.90;;;;;;;3.43;75.95;101119.03;5115529;28;20042;-74
2022/12/03 02:18:10;;;;;;;23.98;15.50;;;;;;;3.45;76.56;101120.72;5115620;28;20043;-74
2022/12/03 02:21:26;;;;;;;;;;;;;;;3.47;75.98;101124.13;5116185;28;20050;-73
2022/12/03 02:24:33;;;;;;;21.35;14.65;;;;;;;3.32;75.68;101115.72;5115926;28;20005;-74
2022/12/03 02:27:37;;;;;;;18.40;13.60;;;;;;;3.17;76.44;101119.34;5115478;28;20096;-74
2022/12/03 02:30:41;;;;;;;19.00;13.85;;;;;;;3.27;77.29;101115.78;5115471;28;20100;-74
2022/12/03 02:33:44;;;;;;;17.35;13.02;;;;;;;3.30;77.32;101115.75;5115374;28;20046;-73
2022/12/03 02:36:47;;;;;;;20.20;14.02;;;;;;;3.16;76.40;101115.03;5115396;28;20093;-73
2022/12/03 02:39:57;;;;;;;;;;;;;;;3.26;77.80;101119.25;5115839;28;20088;-74
2022/12/03 02:43:02;;;;;;;18.83;12.40;;;;;;;3.12;75.62;101121.13;5115342;28;19919;-73
2022/12/03 02:46:07;;;;;;;18.65;13.40;;;;;;;3.25;75.35;101117.50;5114443;28;20129;-73
2022/12/03 02:49:11;;;;;;;17.73;12.20;;;;;;;3.30;75.41;101118.31;5115167;28;20120;-73
2022/12/03 02:52:15;;;;;;;19.25;12.75;;;;;;;3.26;75.57;101114.06;5115156;28;20043;-73
2022/12/03 02:55:19;;;;;;;17.90;12.50;;;;;;;3.13;78.56;101117.69;5115367;28;20054;-74
2022/12/03 02:58:24;;;;;;;16.85;12.55;;;;;;;3.07;77.68;101110.88;5114851;28;20124;-74
2022/12/03 03:01:29;;;;;;;16.10;10.77;;;;;;;3.29;74.71;101119.22;5114875;28;20062;-73
2022/12/03 03:04:33;;;;;;;15.95;11.95;;;;;;;3.30;75.04;101115.75;5114849;28;20589;-73
2022/12/03 03:07:38;;;;;;;16.50;11.23;;;;;;;3.19;75.86;101118.47;5115011;28;20330;-73
2022/12/03 03:10:43;;;;;;;17.42;12.07;;;;;;;3.15;76.12;101114.19;5115063;28;20507;-73
2022/12/03 03:13:46;;;;;;;14.57;10.30;;;;;;;3.16;76.20;101109.88;5114902;28;20054;-73
2022/12/03 03:16:54;;;;;;;14.35;11.10;;;;;;;3.08;76.12;101112.56;5114750;28;20442;-73
2022/12/03 03:19:58;;;;;;;16.17;11.60;;;;;;;2.99;75.18;101103.19;5114530;28;20050;-73
2022/12/03 03:23:12;;;;;;;13.45;9.85;;;;;;;3.06;74.96;101103.97;5114860;28;20054;-74
2022/12/03 03:26:15;;;;;;;13.18;9.60;;;;;;;3.20;74.64;101106.41;5114165;28;20066;-74
2022/12/03 03:29:20;;;;;;;12.32;9.35;;;;;;;3.31;75.06;101099.34;5114624;28;20047;-74
2022/12/03 03:32:29;;;;;;;16.65;11.13;;;;;;;3.31;73.62;101093.31;5114310;28;20050;-73
2022/12/03 03:35:32;;;;;;;13.90;9.70;;;;;;;3.29;74.19;101097.66;5114098;28;20143;-73
2022/12/03 03:38:36;;;;;;;13.73;10.35;;;;;;;3.28;74.66;101094.22;5114118;28;20188;-73
2022/12/03 03:41:44;;;;;;;11.70;8.93;;;;;;;3.31;74.75;101096.75;5114010;28;20096;-73
2022/12/03 03:44:48;;;;;;;14.10;10.48;;;;;;;3.21;74.05;101095.19;5114038;28;20096;-73
2022/12/03 03:47:52;;;;;;;11.70;8.45;;;;;;;3.15;75.00;101090.94;5114335;28;20110;-73
2022/12/03 03:50:56;;;;;;;12.15;8.95;;;;;;;3.12;74.19;101084.94;5113896;28;20043;-73
2022/12/03 03:54:01;;;;;;;13.13;9.35;;;;;;;3.17;74.17;101085.75;4750475;28;10000442;-73
2022/12/03 03:57:05;;;;;;;12.18;8.63;;;;;;;3.18;74.19;101080.56;5089077;28;20059;-73
2022/12/03 04:00:10;;;;;;;13.00;9.52;;;;;;;3.15;74.03;101072.00;5089873;28;20515;-72
2022/12/03 04:03:13;;;;;;;10.80;9.00;;;;;;;2.98;73.62;101083.41;5089908;28;20054;-73
2022/12/03 04:06:17;;;;;;;12.68;8.88;;;;;;;2.96;73.80;101077.38;5089277;28;20076;-73
2022/12/03 04:09:20;;;;;;;11.73;8.60;;;;;;;2.98;74.10;101067.06;5089785;28;20047;-73
2022/12/03 04:15:45;;;;;;;11.88;9.00;;;;;;;3.01;74.30;101072.19;5089472;28;20051;-73
2022/12/03 04:18:49;;;;;;;;;;;;;;;3.01;73.61;101073.03;5089721;28;20047;-73
2022/12/03 04:28:48;;;;;;;11.90;8.88;;;;;;;3.25;73.25;101068.41;4386887;28;10001566;-73
2022/12/03 04:38:36;;;;;;;11.82;8.75;;;;;;;3.03;73.58;101065.25;5092331;28;20083;-74
2022/12/03 04:41:39;;;;;;;10.88;8.38;;;;;;;3.16;73.04;101053.91;5092596;28;20093;-74
2022/12/03 04:44:42;;;;;;;11.70;8.95;;;;;;;3.17;73.18;101057.34;5092602;28;20046;-73
2022/12/03 04:47:45;;;;;;;10.95;8.82;;;;;;;3.19;72.66;101066.78;5091722;28;20086;-73
2022/12/03 04:50:49;;;;;;;12.68;8.80;;;;;;;3.13;72.80;101063.44;5092470;28;20416;-73
2022/12/03 04:53:52;;;;;;;11.10;8.43;;;;;;;2.95;73.88;101062.78;5092185;28;20519;-74
2022/12/03 04:56:56;;;;;;;;;;;;;;;3.08;73.46;101062.63;5092691;28;20059;-74
2022/12/03 04:59:59;;;;;;;11.30;8.40;;;;;;;2.93;73.55;101069.69;5091297;28;19957;-73
2022/12/03 05:03:02;;;;;;;10.48;8.30;;;;;;;2.93;74.70;101061.06;5092167;28;20047;-74
2022/12/03 05:06:06;;;;;;;10.30;7.95;;;;;;;3.08;73.45;101062.63;5092433;28;20112;-74
2022/12/03 05:09:10;;;;;;;12.52;9.23;;;;;;;2.89;73.68;101067.16;5091544;28;20042;-73
2022/12/03 05:12:13;;;;;;;9.93;7.65;;;;;;;2.86;73.93;101075.78;5092206;28;20039;-73
2022/12/03 05:15:18;;;;;;;10.05;8.00;;;;;;;2.86;74.61;101077.53;5092340;28;20051;-75
2022/12/03 05:18:23;;;;;;;10.48;7.28;;;;;;;3.03;73.57;101073.00;5091919;28;20141;-74
2022/12/03 05:21:27;;;;;;;11.40;8.75;;;;;;;2.99;74.38;101067.03;5091578;28;20133;-74
2022/12/03 05:24:30;;;;;;;11.05;9.13;;;;;;;2.95;74.05;101073.09;5092056;28;20097;-75
2022/12/03 05:27:35;;;;;;;11.15;8.00;;;;;;;3.01;74.00;101075.63;4749386;28;9999784;-72
2022/12/03 05:30:54;;;;;;;11.93;8.75;;;;;;;3.08;73.72;101073.81;5085339;28;20054;-74
2022/12/03 05:34:04;;;;;;;10.70;7.95;;;;;;;3.02;74.28;101064.41;5108988;28;20049;-73
2022/12/03 05:37:09;;;;;;;10.05;7.65;;;;;;;2.71;75.49;101057.88;5108567;28;20059;-74
2022/12/03 05:40:14;;;;;;;11.55;8.52;;;;;;;2.74;75.56;101060.44;5108335;28;20096;-75
2022/12/03 05:43:18;;;;;;;11.73;8.55;;;;;;;2.75;76.31;101055.28;5108707;28;20070;-75
2022/12/03 05:46:21;;;;;;;10.90;8.48;;;;;;;2.84;75.15;101054.31;5108544;28;20102;-74
2022/12/03 05:49:25;;;;;;;11.43;8.50;;;;;;;2.81;74.55;101049.19;5108892;28;20054;-74
2022/12/03 05:52:31;;;;;;;11.68;8.57;;;;;;;2.83;75.68;101047.41;5108362;28;20055;-75
2022/12/03 05:55:35;;;;;;;12.25;8.73;;;;;;;2.75;75.18;101049.25;5107911;28;20047;-76
2022/12/03 05:58:45;;;;;;;10.25;8.35;;;;;;;2.86;75.56;101052.56;5108645;28;20047;-76
2022/12/03 06:01:53;;;;;;;13.00;9.82;;;;;;;2.90;75.82;101049.03;5108441;28;20054;-75
2022/12/03 06:05:23;;;;;;;11.27;8.70;;;;;;;3.09;75.22;101049.66;4394591;28;10000744;-74
2022/12/03 06:08:26;;;;;;;13.38;10.02;;;;;;;2.95;74.55;101049.84;5110965;28;20059;-76
2022/12/03 06:11:32;;;;;;;14.68;11.38;;;;;;;2.84;74.59;101048.25;5110322;28;20468;-75
2022/12/03 06:14:36;;;;;;;22.48;15.55;;;;;;;2.77;75.25;101053.50;5115663;28;20042;-75
2022/12/03 06:17:40;;;;;;;10.82;9.57;;;;;;;2.72;75.89;101059.63;5114513;28;20446;-75
2022/12/03 06:20:44;;;;;;;13.13;10.13;;;;;;;2.59;77.22;101064.06;5107465;28;20489;-74
2022/12/03 06:23:47;;;;;;;10.43;7.90;;;;;;;2.80;76.64;101057.78;5122078;27;20511;-74
2022/12/03 06:26:50;;;;;;;12.43;8.75;;;;;;;2.79;76.34;101061.25;5108756;28;20471;-74
2022/12/03 06:29:56;;;;;;;9.98;7.50;;;;;;;2.96;75.09;101059.31;5109484;28;20397;-74
2022/12/03 06:32:59;;;;;;;11.23;8.43;;;;;;;2.95;74.85;101057.59;5109427;28;20536;-74
2022/12/03 06:36:02;;;;;;;;;;;;;;;2.88;75.22;101055.13;5110993;28;20462;-74
2022/12/03 06:39:06;;;;;;;12.52;8.77;;;;;;;2.78;76.12;101056.97;5124030;27;20406;-74
2022/12/03 06:42:09;;;;;;;10.55;8.18;;;;;;;2.85;75.92;101056.00;5131612;27;20042;-75
2022/12/03 06:45:12;;;;;;;;;;;;;;;2.87;75.25;101056.88;5131415;27;20058;-74
2022/12/03 06:48:15;;;;;;;9.73;7.95;;;;;;;2.89;75.79;101056.81;5131381;27;19953;-74
2022/12/03 06:51:18;;;;;;;;;;;;;;;2.81;75.60;101056.94;5130173;27;20049;-74
2022/12/03 06:54:21;;;;;;;11.00;8.52;;;;;;;2.70;75.67;101057.03;5117204;27;20272;-74
2022/12/03 06:57:25;;;;;;;;;;;;;;;2.73;75.48;101058.72;5131761;27;20046;-74
2022/12/03 07:00:28;;;;;;;11.70;8.05;;;;;;;2.90;74.21;101063.69;5131433;27;19995;-73
2022/12/03 07:03:32;;;;;;;12.93;9.95;;;;;;;2.92;74.35;101061.97;5130662;27;20107;-73
2022/12/03 07:06:35;;;;;;;11.52;9.43;;;;;;;2.89;75.04;101062.84;5121236;27;20046;-74
2022/12/03 07:09:39;;;;;;;10.43;8.23;;;;;;;3.00;74.12;101065.31;5113205;27;20038;-75
2022/12/03 07:12:42;;;;;;;11.73;9.68;;;;;;;2.80;74.07;101057.78;5131473;27;20088;-75
2022/12/03 07:15:45;;;;;;;11.00;9.23;;;;;;;2.94;74.04;101058.50;5130700;27;20073;-76
2022/12/03 07:18:48;;;;;;;11.20;8.38;;;;;;;2.73;76.27;101056.16;5130331;27;20046;-75
2022/12/03 07:21:52;;;;;;;13.02;9.55;;;;;;;2.61;76.36;101056.28;5100074;27;20039;-74
2022/12/03 07:24:55;;;;;;;11.75;8.80;;;;;;;2.80;74.88;101053.47;5089395;28;20527;-74
2022/12/03 07:27:58;;;;;;;10.57;8.35;;;;;;;2.98;73.54;101062.75;5089852;28;20051;-73
2022/12/03 07:31:02;;;;;;;12.05;9.00;;;;;;;3.03;73.60;101055.78;5089916;28;20130;-74
2022/12/03 07:34:06;;;;;;;12.50;8.65;;;;;;;2.86;74.76;101046.53;5089322;28;20128;-72
2022/12/03 07:37:12;;;;;;;12.32;9.45;;;;;;;3.06;74.17;101054.88;5090163;27;20074;-73
2022/12/03 07:40:16;;;;;;;14.27;11.02;;;;;;;3.11;74.18;101055.69;5130029;27;20041;-74
2022/12/03 07:43:19;;;;;;;;;;;;;;;2.86;74.73;101047.38;5129314;27;20042;-75
2022/12/03 07:46:23;;;;;;;12.73;10.38;;;;;;;2.86;74.71;101054.28;5129938;27;19918;-76
2022/12/03 07:49:27;;;;;;;16.38;13.18;;;;;;;3.01;74.10;101057.53;5121574;27;20526;-75
2022/12/03 07:52:31;;;;;;;19.45;15.10;;;;;;;3.03;74.42;101047.16;5130370;27;20046;-78
2022/12/03 07:55:35;;;;;;;;;;;;;;;3.23;73.14;101044.34;5130168;27;20064;-76
2022/12/03 07:58:39;;;;;;;13.95;10.77;;;;;;;3.06;73.20;101043.69;5128050;27;19927;-73
2022/12/03 08:01:43;;;;;;;;;;;;;;;3.05;73.49;101047.16;5128099;27;20042;-74
2022/12/03 08:04:47;;;;;;;15.10;10.98;;;;;;;3.05;73.48;101044.56;5110450;27;19919;-77
2022/12/03 08:07:51;;;;;;;16.23;12.70;;;;;;;3.01;73.15;101039.44;5109605;28;20088;-75
2022/12/03 08:10:56;;;;;;;12.77;10.18;;;;;;;2.90;74.52;101048.19;5109190;28;20494;-74
2022/12/03 08:13:59;;;;;;;;;;;;;;;2.92;74.21;101051.63;5109202;28;20092;-74
2022/12/03 08:17:10;;;;;;;37.88;23.83;;;;;;;3.03;73.38;101044.56;5119566;27;19917;-74
2022/12/03 08:20:20;;;;;;;16.40;11.38;;;;;;;2.90;74.15;101046.47;5102341;27;20046;-74
2022/12/03 08:23:24;;;;;;;15.38;11.40;;;;;;;2.79;74.76;101051.78;5087261;28;20193;-74
2022/12/03 08:26:28;;;;;;;14.85;11.40;;;;;;;2.99;73.68;101051.50;5088466;28;20158;-76
2022/12/03 08:29:33;;;;;;;15.18;11.50;;;;;;;3.04;72.85;101048.88;5087702;28;20047;-74
2022/12/03 08:32:37;;;;;;;14.48;10.50;;;;;;;2.98;74.29;101048.97;5096634;28;20046;-76
2022/12/03 08:35:49;;;;;;;14.48;11.32;;;;;;;3.11;73.37;101049.66;5108526;28;20454;-76
2022/12/03 08:38:59;;;;;;;15.80;11.38;;;;;;;2.96;73.77;101048.97;5107412;28;20045;-76
2022/12/03 08:45:31;;;;;;;15.35;11.93;;;;;;;3.17;72.66;101053.03;5107602;28;20122;-74
2022/12/03 08:48:37;;;;;;;14.82;11.38;;;;;;;2.91;73.42;101050.78;5087777;28;20146;-75
2022/12/03 08:51:40;;;;;;;17.25;12.18;;;;;;;2.75;74.07;101049.25;5087677;28;20046;-75
2022/12/03 08:54:53;;;;;;;15.27;10.98;;;;;;;2.97;73.46;101055.88;5087205;28;20161;-74
2022/12/03 08:57:58;;;;;;;15.75;12.15;;;;;;;2.99;73.91;101051.50;5087447;28;20244;-75
2022/12/03 09:01:09;;;;;;;18.70;13.35;;;;;;;2.98;73.93;101057.56;5101397;27;20569;-76
2022/12/03 09:04:26;;;;;;;18.15;13.63;;;;;;;2.98;73.82;101060.16;5110990;27;20081;-77
2022/12/03 09:07:30;;;;;;;17.40;13.18;;;;;;;3.15;72.98;101061.66;5108265;27;20046;-76
2022/12/03 09:10:33;;;;;;;16.00;13.35;;;;;;;2.85;74.32;101057.75;5107005;28;20050;-75
2022/12/03 09:13:37;;;;;;;15.45;12.45;;;;;;;2.95;74.54;101057.59;5107440;28;20730;-76
2022/12/03 09:16:41;;;;;;;;;;;;;;;2.99;73.70;101059.25;5097863;28;20043;-77
2022/12/03 09:20:09;;;;;;;16.25;12.30;;;;;;;3.09;73.95;101054.00;5092786;28;19980;-77
2022/12/03 09:23:13;;;;;;;18.63;13.50;;;;;;;3.04;74.71;101048.88;5108777;28;20082;-77
2022/12/03 09:26:16;;;;;;;20.27;16.15;;;;;;;3.18;73.17;101059.03;5110103;28;20069;-77
2022/12/03 09:29:19;;;;;;;18.13;13.60;;;;;;;3.22;72.91;101059.00;5110198;28;20051;-76
2022/12/03 09:32:23;;;;;;;;;;;;;;;3.35;72.96;101062.25;5110837;28;20156;-76
2022/12/03 09:35:26;;;;;;;17.65;13.45;;;;;;;3.32;72.42;101053.66;5108782;28;19962;-76
2022/12/03 09:38:29;;;;;;;25.75;14.57;;;;;;;3.29;72.27;101049.44;5111008;28;20078;-75
2022/12/03 09:41:35;;;;;;;18.73;13.82;;;;;;;3.25;73.09;101052.91;5111922;28;20074;-76
2022/12/03 09:44:39;;;;;;;18.70;14.05;;;;;;;3.18;73.29;101053.88;5111682;28;20404;-76
2022/12/03 09:47:47;;;;;;;17.65;13.43;;;;;;;3.15;72.92;101043.56;5090750;28;20401;-77
2022/12/03 09:50:51;;;;;;;21.00;13.60;;;;;;;3.32;72.99;101049.38;5094006;28;20055;-76
2022/12/03 09:53:58;;;;;;;18.83;14.20;;;;;;;3.26;73.26;101041.72;5091690;28;20043;-77
2022/12/03 09:57:03;;;;;;;17.73;13.85;;;;;;;3.28;72.99;101034.78;5095558;28;20042;-76
2022/12/03 10:00:18;;;;;;;17.73;14.35;;;;;;;3.24;73.13;101033.97;5095763;28;20042;-76
2022/12/03 10:03:31;;;;;;;18.33;14.55;;;;;;;3.07;73.77;101027.34;5125912;27;20568;-76
2022/12/03 10:06:36;;;;;;;20.27;14.98;;;;;;;3.16;73.55;101029.75;5136087;27;20054;-76
2022/12/03 10:10:24;;;;;;;20.48;14.73;;;;;;;3.16;74.03;101019.44;5113635;28;20113;-76
2022/12/03 10:13:33;;;;;;;21.45;15.70;;;;;;;3.23;73.67;101023.66;5106822;28;20109;-77
2022/12/03 10:16:39;;;;;;;20.83;16.15;;;;;;;3.31;73.56;101024.38;5110532;28;20408;-76
2022/12/03 10:19:43;;;;;;;19.85;14.63;;;;;;;3.19;73.52;101014.22;5113786;27;20527;-77
2022/12/03 10:22:49;;;;;;;26.95;16.73;;;;;;;3.37;72.42;101013.97;5089597;28;20178;-76
2022/12/03 10:26:09;;;;;;;23.52;16.40;;;;;;;3.38;73.02;101005.34;5091182;28;20400;-76
2022/12/03 10:29:16;;;;;;;22.63;16.88;;;;;;;3.42;72.98;101004.44;5072250;28;20089;-76
2022/12/03 10:32:25;;;;;;;23.70;17.15;;;;;;;3.40;73.22;101010.50;5069116;28;20500;-76
2022/12/03 10:35:39;;;;;;;25.88;19.23;;;;;;;3.26;73.14;100997.78;5086634;28;20512;-75
2022/12/03 10:38:44;;;;;;;22.88;17.75;;;;;;;3.22;73.89;100994.38;5088977;28;20047;-74
2022/12/03 10:41:48;;;;;;;22.90;16.85;;;;;;;3.32;73.27;100989.94;5074226;28;20035;-75
2022/12/03 10:45:18;;;;;;;25.25;18.48;;;;;;;3.20;73.15;100995.28;5073335;28;20528;-74
2022/12/03 10:48:27;;;;;;;22.73;16.52;;;;;;;3.46;72.90;100987.13;5073951;28;20106;-74
2022/12/03 10:51:32;;;;;;;27.50;18.80;;;;;;;3.43;72.41;100988.03;5094696;28;20311;-73
2022/12/03 10:54:36;;;;;;;23.13;17.00;;;;;;;3.36;73.27;100986.41;5093248;28;20128;-74
2022/12/03 10:57:41;;;;;;;22.38;17.90;;;;;;;3.32;73.00;100983.88;5092499;28;20158;-73
2022/12/03 11:00:45;;;;;;;25.58;17.38;;;;;;;3.23;72.83;100980.56;5094461;28;20047;-75
2022/12/03 11:03:51;;;;;;;23.70;17.50;;;;;;;3.24;73.31;100981.44;5089636;28;20214;-75
2022/12/03 11:06:57;;;;;;;25.38;18.23;;;;;;;3.19;73.22;100978.03;5093849;28;20066;-74
2022/12/03 11:10:04;;;;;;;24.48;17.77;;;;;;;3.27;73.56;100971.03;5085385;28;20075;-74
2022/12/03 11:13:43;;;;;;;23.75;17.67;;;;;;;3.14;73.73;100964.34;5094072;28;20061;-74
2022/12/03 11:16:52;;;;;;;24.83;18.20;;;;;;;3.33;73.62;100955.44;5082119;28;20066;-74
2022/12/03 11:20:00;;;;;;;23.92;17.35;;;;;;;3.34;73.07;100957.16;5080195;28;20071;-72
2022/12/03 11:23:09;;;;;;;23.50;17.77;;;;;;;3.38;74.22;100957.94;5093853;28;20100;-74
2022/12/03 11:26:35;;;;;;;26.40;18.63;;;;;;;3.26;73.90;100948.66;5093668;28;20414;-80
2022/12/03 11:29:58;;;;;;;25.92;18.33;;;;;;;3.39;73.92;100949.34;5134487;27;20049;-76
2022/12/03 11:33:01;;;;;;;24.40;17.02;;;;;;;3.51;73.53;100949.16;5134513;27;20102;-77
2022/12/03 11:36:11;;;;;;;24.05;17.77;;;;;;;3.60;73.09;100940.34;5134488;27;20050;-74
2022/12/03 11:39:43;;;;;;;23.60;18.15;;;;;;;3.49;72.76;100949.16;5126695;27;20050;-75
2022/12/03 11:42:47;;;;;;;22.55;16.42;;;;;;;3.57;72.80;100943.00;5109295;28;20088;-76
2022/12/03 11:45:52;;;;;;;26.92;17.95;;;;;;;3.33;73.86;100939.94;5108345;28;20270;-77
2022/12/03 11:49:00;;;;;;;29.33;20.23;;;;;;;3.59;73.47;100938.66;5108476;27;20092;-76
2022/12/03 11:52:19;;;;;;;24.52;18.70;;;;;;;3.39;73.13;100929.50;5089517;28;20104;-76
2022/12/03 11:55:38;;;;;;;27.90;18.15;;;;;;;3.40;73.75;100926.03;5088966;28;20042;-76
2022/12/03 11:58:43;;;;;;;25.77;20.80;;;;;;;3.35;73.38;100927.84;5089611;28;20083;-75
2022/12/03 12:01:47;;;;;;;24.73;17.55;;;;;;;3.50;73.27;100922.41;5089447;28;20050;-75
2022/12/03 12:04:50;;;;;;;28.30;20.42;;;;;;;3.60;72.88;100912.75;5100460;28;20055;-74
2022/12/03 12:07:55;;;;;;;25.98;19.25;;;;;;;3.60;72.59;100909.31;5107817;28;20034;-75
2022/12/03 12:10:59;;;;;;;23.60;18.70;;;;;;;3.57;73.00;100897.31;5106689;28;20100;-75
2022/12/03 12:14:04;;;;;;;26.63;18.73;;;;;;;3.58;72.94;100899.03;5113787;27;20042;-76
2022/12/03 12:17:28;;;;;;;27.50;19.38;;;;;;;3.37;73.70;100905.41;5115669;27;20131;-77
2022/12/03 12:20:31;;;;;;;25.80;19.50;;;;;;;3.39;74.51;100903.66;5119785;27;20103;-78
2022/12/03 12:23:35;;;;;;;30.10;20.40;;;;;;;3.50;74.10;100898.28;5126754;27;20531;-75
2022/12/03 12:26:49;;;;;;;24.20;18.23;;;;;;;3.55;73.50;100901.66;5128677;27;20046;-76
2022/12/03 12:29:54;;;;;;;;;;;;;;;3.57;73.42;100896.44;5105764;27;20046;-77
2022/12/03 12:33:10;;;;;;;25.50;18.83;;;;;;;3.62;73.31;100899.81;5129158;27;20287;-77
2022/12/03 12:36:13;;;;;;;25.33;18.83;;;;;;;3.57;73.32;100893.88;5122887;27;20583;-78
2022/12/03 12:39:17;;;;;;;27.30;20.13;;;;;;;3.53;73.33;100892.22;5128652;27;20038;-77
2022/12/03 12:42:28;;;;;;;;;;;;;;;3.43;74.33;100883.78;5123245;27;20119;-77
2022/12/03 12:45:41;;;;;;;25.50;19.48;;;;;;;3.44;74.14;100891.47;5120776;27;19918;-78
2022/12/03 12:48:44;;;;;;;26.70;19.33;;;;;;;3.48;73.61;100887.16;5128221;27;20084;-77
2022/12/03 12:51:49;;;;;;;32.17;20.80;;;;;;;3.46;73.65;100881.13;5128845;27;20042;-78
2022/12/03 12:54:52;;;;;;;27.05;20.38;;;;;;;3.61;73.35;100882.63;5126951;27;20037;-74
2022/12/03 12:58:04;;;;;;;28.10;20.65;;;;;;;3.63;72.92;100888.59;5109853;27;20058;-78
2022/12/03 13:01:29;;;;;;;25.65;20.55;;;;;;;3.47;74.39;100886.25;5108564;28;20168;-80
2022/12/03 13:04:38;;;;;;;28.42;20.48;;;;;;;3.45;74.92;100885.47;5107109;28;20193;-74
2022/12/03 13:07:42;;;;;;;50.65;24.67;;;;;;;3.55;74.10;100883.56;5107329;28;20074;-75
2022/12/03 13:10:48;;;;;;;30.90;20.60;;;;;;;3.42;75.21;100882.06;5107171;28;20077;-76
2022/12/03 13:13:51;;;;;;;35.70;22.35;;;;;;;3.68;73.75;100889.38;5113791;27;20088;-74
2022/12/03 13:16:57;;;;;;;30.42;22.30;;;;;;;3.58;73.15;100882.66;5128469;27;20415;-75
2022/12/03 13:20:13;;;;;;;24.70;18.77;;;;;;;3.35;73.94;100883.03;5126870;27;20889;-73
2022/12/03 13:23:29;;;;;;;25.88;19.45;;;;;;;3.29;75.23;100878.84;5127089;27;20130;-70
2022/12/03 13:26:38;;;;;;;27.73;19.17;;;;;;;3.64;73.58;100877.38;5109912;28;20058;-72
2022/12/03 13:29:48;;;;;;;25.55;19.23;;;;;;;3.61;73.22;100872.25;5106494;28;20127;-71
2022/12/03 13:32:51;;;;;;;28.02;20.17;;;;;;;3.74;72.60;100871.16;5107091;28;20181;-71
2022/12/03 13:35:55;;;;;;;26.25;18.58;;;;;;;3.65;73.12;100866.16;5107822;28;20047;-72
2022/12/03 13:38:59;;;;;;;28.40;20.27;;;;;;;3.70;73.23;100861.72;5108222;28;20054;-71
2022/12/03 13:42:38;;;;;;;25.20;19.35;;;;;;;3.52;73.52;100862.09;5087654;28;20412;-72
2022/12/03 13:45:50;;;;;;;27.17;19.65;;;;;;;3.60;73.85;100858.47;5087677;28;20062;-72
2022/12/03 13:48:53;;;;;;;31.45;20.15;;;;;;;3.50;74.51;100855.19;5102963;28;20030;-72
2022/12/03 13:51:56;;;;;;;28.25;19.23;;;;;;;3.49;73.92;100858.66;5107422;28;20065;-72
2022/12/03 13:55:01;;;;;;;;;;;;;;;3.53;74.37;100856.03;5106647;28;20038;-72
2022/12/03 13:58:04;;;;;;;25.58;18.20;;;;;;;3.54;73.14;100858.56;5106334;28;20337;-72
2022/12/03 14:01:08;;;;;;;26.02;19.23;;;;;;;3.55;73.46;100857.72;5106844;28;20119;-72
2022/12/03 14:04:11;;;;;;;;;;;;;;;3.46;73.67;100855.28;5107521;28;20063;-72
2022/12/03 14:07:15;;;;;;;26.15;17.65;;;;;;;3.45;74.31;100859.59;5106847;28;20434;-72
2022/12/03 14:10:18;;;;;;;28.92;20.55;;;;;;;3.54;73.38;100862.88;5086079;28;20066;-71
2022/12/03 14:13:22;;;;;;;24.75;18.17;;;;;;;3.49;73.62;100863.00;5105541;28;20042;-71
2022/12/03 14:16:26;;;;;;;25.98;18.75;;;;;;;3.57;73.38;100855.94;5106113;28;20046;-72
2022/12/03 14:19:31;;;;;;;27.48;20.15;;;;;;;3.53;73.19;100848.28;5106985;28;20061;-71
2022/12/03 14:22:38;;;;;;;24.05;17.80;;;;;;;3.48;73.19;100851.81;5106955;28;20412;-72
2022/12/03 14:25:44;;;;;;;24.33;18.75;;;;;;;3.43;73.85;100852.75;5108194;28;20047;-72
2022/12/03 14:28:47;;;;;;;27.02;19.55;;;;;;;3.58;73.05;100846.47;5108333;28;20108;-71
2022/12/03 14:31:51;;;;;;;;;;;;;;;3.47;72.98;100851.81;5109035;28;20039;-72
2022/12/03 14:34:54;;;;;;;26.60;19.63;;;;;;;3.55;73.21;100846.53;5106894;28;20080;-72
2022/12/03 14:37:57;;;;;;;;;;;;;;;3.47;73.36;100847.47;5106579;28;20095;-73
2022/12/03 14:41:01;;;;;;;27.38;19.90;;;;;;;3.31;73.74;100843.47;5106813;28;20264;-72
2022/12/03 14:44:04;;;;;;;;;;;;;;;3.43;73.84;100850.16;5109778;28;20066;-72
2022/12/03 14:47:12;;;;;;;27.98;20.23;;;;;;;3.60;72.97;100844.69;5091035;28;19984;-71
2022/12/03 14:50:16;;;;;;;27.95;19.35;;;;;;;3.29;74.12;100845.25;5091097;28;20096;-72
2022/12/03 14:53:21;;;;;;;28.15;20.13;;;;;;;3.40;74.12;100845.06;5109370;28;20369;-71